createdAt,value
2023-05-04T00:01:02.232Z,18.33
2023-05-04T00:03:30.059Z,19.23
2023-05-04T00:05:58.056Z,19.83
2023-05-04T00:08:25.874Z,20.70
2023-05-04T00:10:55.829Z,17.52
2023-05-04T00:13:23.925Z,19.10
2023-05-04T00:15:51.823Z,18.05
2023-05-04T00:18:19.489Z,19.00
2023-05-04T00:20:47.388Z,18.20
2023-05-04T00:23:15.171Z,19.58
2023-05-04T00:25:43.347Z,18.40
2023-05-04T00:28:11.050Z,19.83
2023-05-04T00:30:38.962Z,20.10
2023-05-04T00:33:06.856Z,20.75
2023-05-04T00:35:34.811Z,19.13
2023-05-04T00:38:05.035Z,19.25
2023-05-04T00:40:33.322Z,19.25
2023-05-04T00:43:01.106Z,22.20
2023-05-04T00:45:29.088Z,23.30
2023-05-04T00:47:56.830Z,23.27
2023-05-04T00:50:26.301Z,22.48
2023-05-04T00:52:58.426Z,22.85
2023-05-04T00:55:26.577Z,22.85
2023-05-04T00:57:54.404Z,22.00
2023-05-04T01:00:23.036Z,21.05
2023-05-04T01:02:51.229Z,21.05
2023-05-04T01:05:19.504Z,21.45
2023-05-04T01:08:13.418Z,21.98
2023-05-04T01:10:53.548Z,21.13
2023-05-04T01:13:23.097Z,20.67
2023-05-04T01:15:52.229Z,21.30
2023-05-04T01:18:19.888Z,21.27
2023-05-04T01:20:47.940Z,21.15
2023-05-04T01:23:16.616Z,21.13
2023-05-04T01:25:57.862Z,22.52
2023-05-04T01:29:04.456Z,24.40
2023-05-04T01:31:35.395Z,23.67
2023-05-04T01:34:03.520Z,24.05
2023-05-04T01:36:31.821Z,24.17
2023-05-04T01:39:00.002Z,23.13
2023-05-04T01:41:27.997Z,25.20
2023-05-04T01:43:55.996Z,24.00
2023-05-04T01:46:24.264Z,24.33
2023-05-04T01:48:51.999Z,25.08
2023-05-04T01:51:20.194Z,25.25
2023-05-04T01:53:47.947Z,26.13
2023-05-04T01:56:17.688Z,25.98
2023-05-04T01:58:45.857Z,25.42
2023-05-04T02:01:14.590Z,26.88
2023-05-04T02:03:42.534Z,27.00
2023-05-04T02:06:11.369Z,27.00
2023-05-04T02:08:39.355Z,28.15
2023-05-04T02:11:08.565Z,26.20
2023-05-04T02:13:36.661Z,25.70
2023-05-04T02:16:04.961Z,26.75
2023-05-04T02:18:32.679Z,26.10
2023-05-04T02:21:00.852Z,25.60
2023-05-04T02:23:28.593Z,27.27
2023-05-04T02:25:56.613Z,26.33
2023-05-04T02:28:24.782Z,26.33
2023-05-04T02:30:52.667Z,26.23
2023-05-04T02:33:20.423Z,26.58
2023-05-04T02:35:49.189Z,27.20
2023-05-04T02:38:16.820Z,27.90
2023-05-04T02:40:45.007Z,28.90
2023-05-04T02:43:12.705Z,28.65
2023-05-04T02:45:40.795Z,29.73
2023-05-04T02:48:09.032Z,29.73
2023-05-04T02:50:37.631Z,30.85
2023-05-04T02:53:05.301Z,29.23
2023-05-04T02:55:33.346Z,30.55
2023-05-04T02:58:01.284Z,30.27
2023-05-04T03:00:29.259Z,30.40
2023-05-04T03:02:57.034Z,29.58
2023-05-04T03:05:25.031Z,30.55
2023-05-04T03:07:53.572Z,30.55
2023-05-04T03:10:21.994Z,29.17
2023-05-04T03:12:50.500Z,30.33
2023-05-04T03:15:18.731Z,30.52
2023-05-04T03:17:46.619Z,31.10
2023-05-04T03:20:14.805Z,30.25
2023-05-04T03:22:43.245Z,31.13
2023-05-04T03:25:11.502Z,30.45
2023-05-04T03:27:39.176Z,32.30
2023-05-04T03:30:08.208Z,30.95
2023-05-04T03:32:37.425Z,31.58
2023-05-04T03:35:05.877Z,33.28
2023-05-04T03:37:33.660Z,35.60
2023-05-04T03:40:02.044Z,38.80
2023-05-04T03:42:29.790Z,34.88
2023-05-04T03:44:57.921Z,39.70
2023-05-04T03:47:25.684Z,55.55
2023-05-04T03:49:54.093Z,65.78
2023-05-04T03:52:21.855Z,63.47
2023-05-04T03:54:50.221Z,53.35
2023-05-04T03:57:18.176Z,49.15
2023-05-04T03:59:46.603Z,38.55
2023-05-04T04:02:14.853Z,37.83
2023-05-04T04:04:44.197Z,34.30
2023-05-04T04:07:12.464Z,33.33
2023-05-04T04:09:40.586Z,31.83
2023-05-04T04:12:08.282Z,32.72
2023-05-04T04:14:36.230Z,33.00
2023-05-04T04:17:03.955Z,29.95
2023-05-04T04:19:32.240Z,31.25
2023-05-04T04:22:00.050Z,31.48
2023-05-04T04:24:28.167Z,32.28
2023-05-04T04:26:56.097Z,29.40
2023-05-04T04:29:24.180Z,29.17
2023-05-04T04:31:51.818Z,29.05
2023-05-04T04:34:19.914Z,29.38
2023-05-04T04:36:47.592Z,29.88
2023-05-04T04:39:16.658Z,28.15
2023-05-04T04:41:44.401Z,28.02
2023-05-04T04:44:12.500Z,28.48
2023-05-04T04:46:40.416Z,27.50
2023-05-04T04:49:08.427Z,27.00
2023-05-04T04:51:36.653Z,25.85
2023-05-04T04:54:04.679Z,24.95
2023-05-04T04:56:32.418Z,21.15
2023-05-04T04:59:00.370Z,19.23
2023-05-04T05:01:28.206Z,19.55
2023-05-04T05:03:56.150Z,20.42
2023-05-04T05:06:24.037Z,22.35
2023-05-04T05:08:52.886Z,22.33
2023-05-04T05:11:20.813Z,20.17
2023-05-04T05:13:48.781Z,20.08
2023-05-04T05:16:16.458Z,16.42
2023-05-04T05:18:44.444Z,18.08
2023-05-04T05:21:12.189Z,17.60
2023-05-04T05:23:40.231Z,21.00
2023-05-04T05:26:07.874Z,20.73
2023-05-04T05:28:35.813Z,17.88
2023-05-04T05:31:03.913Z,17.73
2023-05-04T05:33:31.937Z,17.65
2023-05-04T05:35:59.649Z,17.50
2023-05-04T05:38:27.618Z,15.45
2023-05-04T05:40:55.632Z,17.25
2023-05-04T05:43:23.534Z,14.57
2023-05-04T05:45:51.194Z,13.55
2023-05-04T05:48:19.196Z,9.20
2023-05-04T05:50:46.820Z,9.43
2023-05-04T05:53:14.900Z,9.35
2023-05-04T05:55:42.544Z,8.57
2023-05-04T05:58:10.544Z,8.38
2023-05-04T06:00:38.291Z,8.45
2023-05-04T06:03:06.410Z,7.25
2023-05-04T06:05:37.212Z,5.80
2023-05-04T06:08:05.284Z,6.18
2023-05-04T06:10:33.605Z,5.80
2023-05-04T06:13:01.831Z,5.72
2023-05-04T06:15:29.594Z,5.50
2023-05-04T06:17:57.500Z,5.45
2023-05-04T06:20:25.224Z,4.05
2023-05-04T06:22:53.181Z,3.80
2023-05-04T06:25:21.042Z,4.70
2023-05-04T06:27:48.975Z,3.70
2023-05-04T06:30:16.903Z,3.72
2023-05-04T06:32:44.824Z,3.58
2023-05-04T06:35:13.774Z,2.78
2023-05-04T06:37:41.758Z,2.97
2023-05-04T06:40:10.227Z,2.40
2023-05-04T06:42:38.348Z,2.65
2023-05-04T06:45:06.645Z,2.28
2023-05-04T06:47:37.931Z,2.85
2023-05-04T06:50:09.739Z,2.45
2023-05-04T06:52:44.267Z,2.00
2023-05-04T06:55:12.065Z,2.20
2023-05-04T06:57:40.132Z,2.35
2023-05-04T07:00:08.961Z,2.10
2023-05-04T07:02:37.003Z,2.03
2023-05-04T07:05:04.978Z,2.13
2023-05-04T07:07:32.975Z,2.30
2023-05-04T07:10:00.645Z,2.00
2023-05-04T07:12:29.121Z,2.17
2023-05-04T07:14:56.816Z,2.15
2023-05-04T07:17:25.559Z,2.20
2023-05-04T07:19:53.512Z,1.88
2023-05-04T07:22:21.700Z,2.05
2023-05-04T07:24:49.488Z,1.83
2023-05-04T07:27:17.393Z,1.98
2023-05-04T07:29:45.073Z,2.08
2023-05-04T07:32:12.990Z,2.20
2023-05-04T07:34:45.765Z,1.90
2023-05-04T07:39:43.692Z,1.60
2023-05-04T07:42:11.786Z,1.58
2023-05-04T07:44:39.776Z,2.00
2023-05-04T07:47:08.141Z,1.77
2023-05-04T07:49:35.944Z,1.65
2023-05-04T07:52:04.609Z,1.92
2023-05-04T07:54:32.458Z,1.80
2023-05-04T07:57:03.698Z,1.40
2023-05-04T07:59:31.699Z,1.77
2023-05-04T08:01:59.829Z,2.00
2023-05-04T08:04:27.613Z,1.85
2023-05-04T08:06:55.511Z,1.85
2023-05-04T08:09:23.436Z,1.60
2023-05-04T08:11:51.344Z,1.80
2023-05-04T08:14:19.054Z,1.65
2023-05-04T08:16:47.774Z,1.30
2023-05-04T08:19:15.446Z,1.52
2023-05-04T08:21:43.385Z,1.90
2023-05-04T08:24:11.707Z,1.83
2023-05-04T08:26:39.784Z,1.80
2023-05-04T08:29:10.585Z,1.85
2023-05-04T08:31:40.513Z,1.52
2023-05-04T08:34:08.299Z,1.67
2023-05-04T08:36:36.353Z,1.60
2023-05-04T08:39:04.042Z,1.77
2023-05-04T08:41:32.370Z,2.00
2023-05-04T08:44:00.400Z,1.60
2023-05-04T08:46:31.615Z,1.85
2023-05-04T08:48:59.335Z,1.92
2023-05-04T08:51:27.673Z,1.60
2023-05-04T08:53:56.439Z,1.58
2023-05-04T08:56:25.492Z,1.55
2023-05-04T08:58:53.842Z,1.92
2023-05-04T09:01:22.781Z,2.10
2023-05-04T09:03:52.426Z,2.10
2023-05-04T09:06:21.094Z,1.70
2023-05-04T09:08:48.817Z,1.85
2023-05-04T09:11:17.137Z,1.80
2023-05-04T09:13:44.809Z,1.63
2023-05-04T09:16:14.981Z,1.80
2023-05-04T09:18:46.323Z,1.60
2023-05-04T09:21:14.403Z,1.98
2023-05-04T09:23:49.011Z,1.35
2023-05-04T09:26:30.676Z,1.90
2023-05-04T09:29:11.951Z,1.77
2023-05-04T09:31:58.632Z,1.60
2023-05-04T09:34:26.444Z,1.90
2023-05-04T09:37:01.973Z,1.83
2023-05-04T09:39:30.586Z,2.10
2023-05-04T09:41:58.809Z,1.80
2023-05-04T09:44:29.771Z,1.83
2023-05-04T09:46:59.046Z,1.95
2023-05-04T09:49:37.048Z,2.00
2023-05-04T09:52:07.065Z,1.92
2023-05-04T09:54:36.378Z,2.10
2023-05-04T09:57:17.709Z,2.08
2023-05-04T09:59:45.656Z,2.00
2023-05-04T10:02:22.822Z,1.98
2023-05-04T10:04:52.774Z,2.30
2023-05-04T10:07:21.234Z,2.30
2023-05-04T10:09:51.282Z,1.90
2023-05-04T10:12:19.445Z,1.90
2023-05-04T10:14:47.743Z,1.98
2023-05-04T10:17:40.892Z,2.20
2023-05-04T10:20:51.069Z,2.10
2023-05-04T10:23:31.015Z,2.35
2023-05-04T10:26:16.927Z,2.10
2023-05-04T10:29:35.947Z,2.05
2023-05-04T10:32:04.281Z,2.47
2023-05-04T10:34:34.611Z,1.90
2023-05-04T10:37:04.595Z,1.88
2023-05-04T10:39:35.320Z,1.92
2023-05-04T10:42:07.954Z,2.30
2023-05-04T10:44:49.068Z,2.20
2023-05-04T10:47:26.848Z,2.00
2023-05-04T10:50:04.832Z,2.03
2023-05-04T10:52:50.523Z,2.20
2023-05-04T10:55:19.987Z,2.30
2023-05-04T10:57:53.223Z,2.42
2023-05-04T11:00:22.028Z,2.17
2023-05-04T11:02:50.422Z,2.00
2023-05-04T11:05:20.395Z,2.20
2023-05-04T11:07:53.287Z,2.42
2023-05-04T11:10:23.526Z,2.28
2023-05-04T11:12:52.076Z,2.38
2023-05-04T11:15:21.318Z,2.40
2023-05-04T11:17:52.127Z,2.17
2023-05-04T11:20:25.496Z,2.33
2023-05-04T11:22:54.248Z,2.28
2023-05-04T11:25:29.548Z,1.83
2023-05-04T11:27:58.699Z,2.15
2023-05-04T11:30:36.487Z,1.90
2023-05-04T11:33:12.641Z,2.30
2023-05-04T11:35:42.412Z,2.40
2023-05-04T11:38:10.878Z,2.15
2023-05-04T11:40:41.317Z,2.63
2023-05-04T11:43:11.725Z,2.40
2023-05-04T11:45:41.528Z,2.20
2023-05-04T11:48:10.273Z,2.05
2023-05-04T11:50:38.697Z,2.30
2023-05-04T11:53:09.447Z,2.15
2023-05-04T11:55:38.226Z,2.17
2023-05-04T11:58:08.161Z,2.40
2023-05-04T12:00:40.511Z,2.13
2023-05-04T12:03:15.767Z,2.38
2023-05-04T12:05:52.460Z,2.22
2023-05-04T12:08:47.426Z,2.50
2023-05-04T12:11:25.924Z,2.30
2023-05-04T12:14:03.356Z,2.00
2023-05-04T12:16:31.643Z,2.00
2023-05-04T12:19:15.021Z,2.38
2023-05-04T12:21:53.769Z,2.03
2023-05-04T12:24:25.078Z,2.28
2023-05-04T12:26:53.293Z,2.40
2023-05-04T12:29:21.359Z,2.05
2023-05-04T12:31:49.441Z,1.95
2023-05-04T12:34:17.200Z,2.15
2023-05-04T12:36:45.213Z,2.25
2023-05-04T12:39:12.874Z,2.00
2023-05-04T12:41:41.067Z,1.92
2023-05-04T12:44:11.467Z,1.98
2023-05-04T12:46:39.419Z,2.20
2023-05-04T12:49:07.384Z,2.13
2023-05-04T12:51:35.649Z,1.92
2023-05-04T12:54:03.497Z,1.90
2023-05-04T12:56:32.181Z,2.00
2023-05-04T12:58:59.887Z,2.13
2023-05-04T13:01:27.860Z,2.40
2023-05-04T13:03:55.550Z,2.08
2023-05-04T13:06:23.583Z,2.33
2023-05-04T13:08:51.314Z,2.40
2023-05-04T13:11:20.169Z,1.98
2023-05-04T13:13:47.927Z,2.28
2023-05-04T13:16:17.187Z,2.38
2023-05-04T13:18:45.030Z,2.40
2023-05-04T13:21:13.779Z,2.38
2023-05-04T13:23:41.518Z,2.20
2023-05-04T13:26:09.563Z,2.30
2023-05-04T13:28:39.383Z,2.10
2023-05-04T13:31:08.771Z,2.30
2023-05-04T13:33:39.880Z,2.15
2023-05-04T13:36:08.211Z,2.63
2023-05-04T13:38:36.730Z,1.83
2023-05-04T13:41:04.716Z,2.20
2023-05-04T13:43:32.411Z,2.47
2023-05-04T13:46:03.865Z,2.00
2023-05-04T13:48:33.793Z,1.90
2023-05-04T13:51:04.087Z,2.22
2023-05-04T13:53:31.896Z,2.20
2023-05-04T13:55:59.897Z,2.03
2023-05-04T13:58:27.658Z,2.20
2023-05-04T14:00:56.459Z,2.35
2023-05-04T14:03:24.237Z,2.35
2023-05-04T14:05:52.728Z,2.03
2023-05-04T14:08:20.440Z,2.05
2023-05-04T14:10:48.393Z,2.40
2023-05-04T14:13:17.025Z,2.28
2023-05-04T14:15:47.262Z,2.25
2023-05-04T14:18:15.484Z,2.30
2023-05-04T14:20:43.623Z,2.05
2023-05-04T14:23:11.250Z,2.00
2023-05-04T14:25:42.042Z,2.10
2023-05-04T14:28:09.822Z,2.20
2023-05-04T14:30:37.789Z,2.35
2023-05-04T14:33:05.581Z,2.10
2023-05-04T14:35:34.529Z,1.90
2023-05-04T14:38:02.140Z,2.25
2023-05-04T14:40:30.191Z,1.98
2023-05-04T14:42:59.737Z,2.30
2023-05-04T14:45:27.789Z,1.90
2023-05-04T14:47:55.584Z,2.00
2023-05-04T14:50:23.619Z,2.10
2023-05-04T14:52:51.488Z,2.28
2023-05-04T14:55:19.413Z,2.08
2023-05-04T14:57:47.207Z,1.98
2023-05-04T15:00:16.172Z,2.20
2023-05-04T15:02:44.137Z,2.13
2023-05-04T15:05:12.822Z,2.15
2023-05-04T15:07:40.596Z,2.30
2023-05-04T15:10:10.616Z,2.20
2023-05-04T15:12:39.603Z,2.25
2023-05-04T15:15:08.163Z,2.05
2023-05-04T15:17:35.921Z,2.40
2023-05-04T15:20:05.023Z,2.10
2023-05-04T15:22:33.131Z,2.33
2023-05-04T15:25:01.894Z,2.00
2023-05-04T15:27:29.728Z,1.92
2023-05-04T15:29:57.987Z,2.17
2023-05-04T15:32:25.856Z,2.10
2023-05-04T15:35:04.437Z,2.10
2023-05-04T15:37:33.348Z,2.00
2023-05-04T15:40:02.668Z,2.28
2023-05-04T15:42:30.773Z,2.78
2023-05-04T15:44:58.740Z,2.40
2023-05-04T15:47:26.988Z,2.03
2023-05-04T15:49:55.214Z,2.30
2023-05-04T15:52:24.012Z,2.20
2023-05-04T15:54:51.926Z,2.33
2023-05-04T15:57:19.567Z,1.92
2023-05-04T15:59:49.619Z,2.00
2023-05-04T16:02:17.422Z,2.15
2023-05-04T16:04:45.707Z,2.15
2023-05-04T16:07:13.457Z,2.00
2023-05-04T16:09:41.499Z,3.30
2023-05-04T16:12:10.130Z,3.03
2023-05-04T16:14:38.095Z,2.00
2023-05-04T16:17:05.861Z,2.35
2023-05-04T16:19:33.788Z,3.03
2023-05-04T16:22:01.532Z,3.95
2023-05-04T16:24:29.469Z,2.92
2023-05-04T16:26:57.097Z,2.50
2023-05-04T16:29:25.159Z,1.92
2023-05-04T16:31:52.792Z,1.83
2023-05-04T16:34:20.800Z,1.88
2023-05-04T16:36:48.506Z,2.47
2023-05-04T16:39:18.758Z,2.22
2023-05-04T16:41:48.364Z,2.00
2023-05-04T16:44:16.541Z,2.05
2023-05-04T16:46:44.281Z,2.53
2023-05-04T16:49:14.606Z,2.50
2023-05-04T16:51:43.404Z,2.47
2023-05-04T16:54:11.561Z,2.10
2023-05-04T16:56:39.224Z,2.15
2023-05-04T16:59:07.356Z,2.20
2023-05-04T17:01:35.515Z,2.70
2023-05-04T17:04:03.536Z,2.25
2023-05-04T17:06:31.404Z,2.10
2023-05-04T17:08:59.317Z,2.17
2023-05-04T17:11:27.067Z,2.70
2023-05-04T17:13:56.095Z,3.45
2023-05-04T17:16:23.961Z,2.60
2023-05-04T17:18:51.894Z,2.55
2023-05-04T17:21:19.889Z,3.15
2023-05-04T17:23:47.793Z,3.30
2023-05-04T17:26:15.830Z,3.00
2023-05-04T17:28:44.406Z,3.30
2023-05-04T17:31:12.611Z,3.10
2023-05-04T17:33:40.710Z,3.40
2023-05-04T17:36:11.851Z,3.05
2023-05-04T17:38:41.278Z,2.90
2023-05-04T17:41:10.010Z,3.30
2023-05-04T17:43:38.907Z,3.45
2023-05-04T17:46:06.723Z,3.35
2023-05-04T17:48:36.424Z,3.63
2023-05-04T17:51:08.521Z,3.95
2023-05-04T17:53:36.748Z,4.05
2023-05-04T17:56:04.611Z,3.80
2023-05-04T17:58:32.553Z,4.07
2023-05-04T18:01:00.164Z,4.57
2023-05-04T18:03:28.369Z,3.78
2023-05-04T18:05:56.599Z,3.47
2023-05-04T18:08:24.618Z,3.65
2023-05-04T18:10:52.270Z,4.95
2023-05-04T18:13:20.432Z,10.70
2023-05-04T18:15:48.139Z,20.00
2023-05-04T18:18:16.386Z,26.50
2023-05-04T18:20:43.994Z,10.15
2023-05-04T18:23:11.962Z,21.60
2023-05-04T18:25:39.645Z,17.55
2023-05-04T18:28:08.396Z,19.92
2023-05-04T18:30:36.359Z,16.02
2023-05-04T18:33:04.736Z,13.70
2023-05-04T18:35:32.545Z,14.32
2023-05-04T18:38:00.669Z,10.60
2023-05-04T18:40:28.566Z,8.23
2023-05-04T18:42:56.624Z,7.40
2023-05-04T18:45:25.219Z,6.47
2023-05-04T18:47:53.321Z,7.03
2023-05-04T18:50:20.964Z,8.57
2023-05-04T18:52:48.974Z,11.88
2023-05-04T18:55:16.627Z,16.42
2023-05-04T18:57:44.672Z,13.05
2023-05-04T19:00:14.008Z,13.95
2023-05-04T19:02:42.013Z,14.57
2023-05-04T19:05:12.211Z,16.05
2023-05-04T19:07:41.788Z,16.75
2023-05-04T19:10:10.085Z,18.80
2023-05-04T19:12:38.039Z,15.73
2023-05-04T19:15:06.628Z,14.55
2023-05-04T19:17:34.957Z,16.27
2023-05-04T19:20:03.041Z,16.17
2023-05-04T19:22:31.172Z,15.02
2023-05-04T19:24:58.850Z,14.20
2023-05-04T19:27:26.903Z,13.82
2023-05-04T19:29:56.189Z,14.80
2023-05-04T19:32:25.195Z,14.02
2023-05-04T19:34:53.476Z,15.00
2023-05-04T19:37:22.020Z,14.80
2023-05-04T19:39:50.689Z,14.80
2023-05-04T19:42:18.683Z,16.63
2023-05-04T19:44:46.434Z,15.05
2023-05-04T19:47:14.419Z,16.42
2023-05-04T19:49:42.007Z,16.33
2023-05-04T19:52:10.063Z,17.85
2023-05-04T19:54:38.420Z,17.45
2023-05-04T19:57:06.996Z,17.25
2023-05-04T19:59:35.755Z,16.67
2023-05-04T20:02:03.868Z,17.85
2023-05-04T20:04:31.733Z,18.33
2023-05-04T20:06:59.697Z,17.90
2023-05-04T20:09:29.014Z,17.67
2023-05-04T20:11:57.004Z,16.63
2023-05-04T20:14:24.690Z,18.90
2023-05-04T20:16:52.738Z,17.95
2023-05-04T20:19:20.480Z,17.95
2023-05-04T20:21:48.823Z,18.58
2023-05-04T20:24:16.931Z,17.85
2023-05-04T20:26:45.079Z,18.83
2023-05-04T20:29:12.733Z,16.75
2023-05-04T20:31:41.441Z,17.73
2023-05-04T20:34:09.927Z,18.17
2023-05-04T20:36:37.808Z,17.63
2023-05-04T20:39:07.071Z,18.48
2023-05-04T20:41:35.113Z,17.25
2023-05-04T20:44:02.829Z,16.83
2023-05-04T20:46:32.040Z,17.35
2023-05-04T20:49:02.809Z,17.80
2023-05-04T20:51:31.582Z,18.00
2023-05-04T20:53:59.215Z,16.83
2023-05-04T20:56:27.341Z,16.20
2023-05-04T20:58:55.303Z,16.67
2023-05-04T21:01:23.507Z,15.68
2023-05-04T21:03:51.382Z,17.30
2023-05-04T21:06:19.365Z,16.27
2023-05-04T21:08:47.139Z,16.27
2023-05-04T21:11:15.074Z,17.40
2023-05-04T21:13:42.674Z,17.05
2023-05-04T21:16:11.395Z,17.67
2023-05-04T21:18:39.313Z,17.17
2023-05-04T21:21:07.277Z,17.33
2023-05-04T21:23:34.977Z,16.20
2023-05-04T21:26:04.066Z,16.73
2023-05-04T21:28:32.232Z,20.60
2023-05-04T21:31:00.314Z,17.90
2023-05-04T21:33:28.204Z,17.40
2023-05-04T21:35:56.215Z,17.98
2023-05-04T21:38:23.934Z,17.70
2023-05-04T21:40:51.852Z,17.27
2023-05-04T21:43:19.535Z,18.92
2023-05-04T21:45:47.501Z,18.85
2023-05-04T21:48:15.404Z,18.15
2023-05-04T21:50:43.321Z,18.17
2023-05-04T21:53:11.291Z,19.10
2023-05-04T21:55:39.218Z,18.15
2023-05-04T21:58:07.542Z,18.30
2023-05-04T22:00:35.540Z,18.65
2023-05-04T22:03:03.356Z,19.00
2023-05-04T22:05:31.261Z,18.20
2023-05-04T22:08:00.972Z,16.98
2023-05-04T22:10:29.139Z,18.98
2023-05-04T22:12:56.808Z,18.40
2023-05-04T22:15:31.683Z,17.98
2023-05-04T22:18:05.888Z,19.73
2023-05-04T22:20:34.685Z,18.38
2023-05-04T22:23:02.474Z,18.25
2023-05-04T22:25:31.293Z,17.38
2023-05-04T22:27:59.749Z,17.23
2023-05-04T22:30:28.262Z,17.35
2023-05-04T22:32:56.404Z,16.52
2023-05-04T22:35:24.632Z,15.88
2023-05-04T22:37:52.346Z,15.77
2023-05-04T22:40:20.418Z,16.08
2023-05-04T22:42:48.256Z,17.38
2023-05-04T22:45:18.348Z,16.73
2023-05-04T22:47:49.034Z,15.02
2023-05-04T22:50:17.522Z,14.02
2023-05-04T22:52:45.301Z,13.10
2023-05-04T22:55:13.290Z,12.48
2023-05-04T22:57:40.893Z,13.70
2023-05-04T23:00:10.023Z,12.45
2023-05-04T23:02:38.358Z,13.85
2023-05-04T23:05:07.047Z,12.13
2023-05-04T23:07:35.007Z,11.50
2023-05-04T23:10:03.560Z,12.52
2023-05-04T23:12:31.626Z,13.45
2023-05-04T23:14:59.657Z,13.57
2023-05-04T23:17:27.327Z,13.85
2023-05-04T23:19:55.606Z,12.52
2023-05-04T23:22:23.219Z,11.80
2023-05-04T23:24:51.191Z,10.82
2023-05-04T23:27:18.919Z,10.50
2023-05-04T23:29:46.895Z,10.82
2023-05-04T23:32:14.572Z,10.98
2023-05-04T23:34:42.870Z,10.35
2023-05-04T23:37:10.706Z,12.10
2023-05-04T23:39:38.565Z,11.77
2023-05-04T23:42:06.379Z,11.80
2023-05-04T23:44:34.278Z,11.65
2023-05-04T23:47:01.903Z,11.90
2023-05-04T23:49:29.914Z,13.27
2023-05-04T23:51:57.520Z,13.30
2023-05-04T23:54:25.396Z,12.80
2023-05-04T23:56:53.063Z,12.20
2023-05-04T23:59:21.128Z,12.18
